sensor_id;sensor_type;location;lat;lon;timestamp;P1;durP1;ratioP1;P2;durP2;ratioP2
54235;SDS011;40151;43.606;1.472;2023-07-20T00:00:26;7.45;;;4.93;;
54235;SDS011;40151;43.606;1.472;2023-07-20T00:02:51;6.43;;;4.32;;
54235;SDS011;40151;43.606;1.472;2023-07-20T00:05:17;6.93;;;4.55;;
54235;SDS011;40151;43.606;1.472;2023-07-20T00:07:43;8.80;;;5.10;;
54235;SDS011;40151;43.606;1.472;2023-07-20T00:10:09;8.75;;;5.05;;
54235;SDS011;40151;43.606;1.472;2023-07-20T00:12:34;7.38;;;5.03;;
54235;SDS011;40151;43.606;1.472;2023-07-20T00:15:00;6.63;;;4.20;;
54235;SDS011;40151;43.606;1.472;2023-07-20T00:17:26;6.15;;;4.25;;
54235;SDS011;40151;43.606;1.472;2023-07-20T00:19:51;7.20;;;5.20;;
54235;SDS011;40151;43.606;1.472;2023-07-20T00:22:17;7.10;;;4.60;;
54235;SDS011;40151;43.606;1.472;2023-07-20T00:24:42;7.22;;;4.88;;
54235;SDS011;40151;43.606;1.472;2023-07-20T00:27:07;7.38;;;4.57;;
54235;SDS011;40151;43.606;1.472;2023-07-20T00:29:34;8.32;;;4.85;;
54235;SDS011;40151;43.606;1.472;2023-07-20T00:32:00;7.28;;;4.43;;
54235;SDS011;40151;43.606;1.472;2023-07-20T00:34:26;8.75;;;5.10;;
54235;SDS011;40151;43.606;1.472;2023-07-20T00:36:51;6.32;;;4.50;;
54235;SDS011;40151;43.606;1.472;2023-07-20T00:39:16;7.07;;;4.70;;
54235;SDS011;40151;43.606;1.472;2023-07-20T00:41:42;7.05;;;4.80;;
54235;SDS011;40151;43.606;1.472;2023-07-20T00:44:07;6.88;;;4.78;;
54235;SDS011;40151;43.606;1.472;2023-07-20T00:46:33;7.72;;;5.20;;
54235;SDS011;40151;43.606;1.472;2023-07-20T00:48:58;6.70;;;4.70;;
54235;SDS011;40151;43.606;1.472;2023-07-20T00:51:24;8.48;;;5.20;;
54235;SDS011;40151;43.606;1.472;2023-07-20T00:53:51;9.10;;;5.28;;
54235;SDS011;40151;43.606;1.472;2023-07-20T00:56:18;6.28;;;4.57;;
54235;SDS011;40151;43.606;1.472;2023-07-20T00:58:44;8.25;;;4.43;;
54235;SDS011;40151;43.606;1.472;2023-07-20T01:01:10;7.93;;;5.05;;
54235;SDS011;40151;43.606;1.472;2023-07-20T01:03:36;7.75;;;4.60;;
54235;SDS011;40151;43.606;1.472;2023-07-20T01:12:05;7.53;;;4.85;;
54235;SDS011;40151;43.606;1.472;2023-07-20T01:14:35;7.03;;;4.43;;
54235;SDS011;40151;43.606;1.472;2023-07-20T01:17:01;6.25;;;4.65;;
54235;SDS011;40151;43.606;1.472;2023-07-20T01:19:29;6.25;;;4.13;;
54235;SDS011;40151;43.606;1.472;2023-07-20T01:21:59;8.43;;;4.82;;
54235;SDS011;40151;43.606;1.472;2023-07-20T01:24:56;7.75;;;4.53;;
54235;SDS011;40151;43.606;1.472;2023-07-20T01:28:05;7.50;;;4.53;;
54235;SDS011;40151;43.606;1.472;2023-07-20T01:33:15;7.72;;;4.75;;
54235;SDS011;40151;43.606;1.472;2023-07-20T01:35:42;5.88;;;4.35;;
54235;SDS011;40151;43.606;1.472;2023-07-20T01:38:10;6.88;;;4.53;;
54235;SDS011;40151;43.606;1.472;2023-07-20T01:40:37;6.70;;;4.35;;
54235;SDS011;40151;43.606;1.472;2023-07-20T01:43:03;8.18;;;4.60;;
54235;SDS011;40151;43.606;1.472;2023-07-20T01:45:29;6.60;;;4.25;;
54235;SDS011;40151;43.606;1.472;2023-07-20T01:47:54;6.47;;;4.57;;
54235;SDS011;40151;43.606;1.472;2023-07-20T01:50:19;7.40;;;4.28;;
54235;SDS011;40151;43.606;1.472;2023-07-20T01:52:45;6.28;;;4.18;;
54235;SDS011;40151;43.606;1.472;2023-07-20T01:55:10;6.78;;;4.05;;
54235;SDS011;40151;43.606;1.472;2023-07-20T01:57:36;6.65;;;4.20;;
54235;SDS011;40151;43.606;1.472;2023-07-20T02:00:01;6.15;;;4.78;;
54235;SDS011;40151;43.606;1.472;2023-07-20T02:02:27;6.60;;;4.20;;
54235;SDS011;40151;43.606;1.472;2023-07-20T02:04:56;7.22;;;4.30;;
54235;SDS011;40151;43.606;1.472;2023-07-20T02:07:21;6.22;;;4.25;;
54235;SDS011;40151;43.606;1.472;2023-07-20T02:09:47;6.68;;;4.60;;
54235;SDS011;40151;43.606;1.472;2023-07-20T02:12:12;7.20;;;4.20;;
54235;SDS011;40151;43.606;1.472;2023-07-20T02:14:37;6.75;;;4.03;;
54235;SDS011;40151;43.606;1.472;2023-07-20T02:17:04;6.78;;;3.97;;
54235;SDS011;40151;43.606;1.472;2023-07-20T02:19:29;7.22;;;4.60;;
54235;SDS011;40151;43.606;1.472;2023-07-20T02:21:55;5.57;;;4.10;;
54235;SDS011;40151;43.606;1.472;2023-07-20T02:24:21;5.75;;;4.05;;
54235;SDS011;40151;43.606;1.472;2023-07-20T02:26:46;5.70;;;4.30;;
54235;SDS011;40151;43.606;1.472;2023-07-20T02:29:11;5.80;;;4.28;;
54235;SDS011;40151;43.606;1.472;2023-07-20T02:31:37;8.25;;;4.40;;
54235;SDS011;40151;43.606;1.472;2023-07-20T02:34:05;6.30;;;4.05;;
54235;SDS011;40151;43.606;1.472;2023-07-20T02:36:31;5.95;;;3.85;;
54235;SDS011;40151;43.606;1.472;2023-07-20T02:38:59;6.80;;;4.15;;
54235;SDS011;40151;43.606;1.472;2023-07-20T02:41:27;6.82;;;3.97;;
54235;SDS011;40151;43.606;1.472;2023-07-20T02:43:52;6.07;;;4.05;;
54235;SDS011;40151;43.606;1.472;2023-07-20T02:46:17;6.32;;;4.30;;
54235;SDS011;40151;43.606;1.472;2023-07-20T02:48:43;6.13;;;3.65;;
54235;SDS011;40151;43.606;1.472;2023-07-20T02:51:08;6.72;;;4.15;;
54235;SDS011;40151;43.606;1.472;2023-07-20T02:53:34;7.03;;;4.63;;
54235;SDS011;40151;43.606;1.472;2023-07-20T02:55:59;6.43;;;4.40;;
54235;SDS011;40151;43.606;1.472;2023-07-20T02:58:25;6.13;;;3.90;;
54235;SDS011;40151;43.606;1.472;2023-07-20T03:00:50;6.15;;;4.05;;
54235;SDS011;40151;43.606;1.472;2023-07-20T03:03:15;6.38;;;3.70;;
54235;SDS011;40151;43.606;1.472;2023-07-20T03:05:41;6.43;;;4.05;;
54235;SDS011;40151;43.606;1.472;2023-07-20T03:08:07;6.35;;;3.97;;
54235;SDS011;40151;43.606;1.472;2023-07-20T03:10:33;8.00;;;4.50;;
54235;SDS011;40151;43.606;1.472;2023-07-20T03:13:03;6.00;;;3.90;;
54235;SDS011;40151;43.606;1.472;2023-07-20T03:15:28;6.50;;;4.35;;
54235;SDS011;40151;43.606;1.472;2023-07-20T03:17:54;5.60;;;3.63;;
54235;SDS011;40151;43.606;1.472;2023-07-20T03:20:19;6.50;;;3.80;;
54235;SDS011;40151;43.606;1.472;2023-07-20T03:22:45;6.97;;;4.15;;
54235;SDS011;40151;43.606;1.472;2023-07-20T03:25:11;5.78;;;3.70;;
54235;SDS011;40151;43.606;1.472;2023-07-20T03:27:36;6.47;;;4.15;;
54235;SDS011;40151;43.606;1.472;2023-07-20T03:30:02;6.28;;;4.00;;
54235;SDS011;40151;43.606;1.472;2023-07-20T03:32:27;6.10;;;4.10;;
54235;SDS011;40151;43.606;1.472;2023-07-20T03:34:53;5.80;;;3.90;;
54235;SDS011;40151;43.606;1.472;2023-07-20T03:37:18;5.38;;;3.88;;
54235;SDS011;40151;43.606;1.472;2023-07-20T03:39:43;5.93;;;3.95;;
54235;SDS011;40151;43.606;1.472;2023-07-20T03:42:09;6.25;;;4.10;;
54235;SDS011;40151;43.606;1.472;2023-07-20T03:44:34;5.70;;;3.85;;
54235;SDS011;40151;43.606;1.472;2023-07-20T03:46:59;6.90;;;3.88;;
54235;SDS011;40151;43.606;1.472;2023-07-20T03:49:25;5.50;;;3.78;;
54235;SDS011;40151;43.606;1.472;2023-07-20T03:51:51;5.15;;;3.58;;
54235;SDS011;40151;43.606;1.472;2023-07-20T03:54:16;6.38;;;4.10;;
54235;SDS011;40151;43.606;1.472;2023-07-20T03:56:41;5.22;;;3.30;;
54235;SDS011;40151;43.606;1.472;2023-07-20T03:59:07;6.20;;;3.65;;
54235;SDS011;40151;43.606;1.472;2023-07-20T04:01:32;5.57;;;3.55;;
54235;SDS011;40151;43.606;1.472;2023-07-20T04:04:01;5.60;;;3.80;;
54235;SDS011;40151;43.606;1.472;2023-07-20T04:06:29;6.03;;;4.00;;
54235;SDS011;40151;43.606;1.472;2023-07-20T04:08:54;5.80;;;3.75;;
54235;SDS011;40151;43.606;1.472;2023-07-20T04:11:20;5.57;;;3.88;;
54235;SDS011;40151;43.606;1.472;2023-07-20T04:13:45;5.88;;;4.03;;
54235;SDS011;40151;43.606;1.472;2023-07-20T04:16:10;5.57;;;3.45;;
54235;SDS011;40151;43.606;1.472;2023-07-20T04:18:36;6.63;;;3.90;;
54235;SDS011;40151;43.606;1.472;2023-07-20T04:21:01;7.00;;;4.03;;
54235;SDS011;40151;43.606;1.472;2023-07-20T04:23:27;5.72;;;3.90;;
54235;SDS011;40151;43.606;1.472;2023-07-20T04:25:52;5.93;;;3.92;;
54235;SDS011;40151;43.606;1.472;2023-07-20T04:28:17;5.53;;;3.53;;
54235;SDS011;40151;43.606;1.472;2023-07-20T04:30:43;5.65;;;3.50;;
54235;SDS011;40151;43.606;1.472;2023-07-20T04:33:08;7.30;;;4.00;;
54235;SDS011;40151;43.606;1.472;2023-07-20T04:35:53;5.88;;;3.63;;
54235;SDS011;40151;43.606;1.472;2023-07-20T04:38:19;5.28;;;3.78;;
54235;SDS011;40151;43.606;1.472;2023-07-20T04:40:46;5.65;;;3.75;;
54235;SDS011;40151;43.606;1.472;2023-07-20T04:43:13;5.78;;;3.88;;
54235;SDS011;40151;43.606;1.472;2023-07-20T04:45:40;6.07;;;3.75;;
54235;SDS011;40151;43.606;1.472;2023-07-20T04:48:06;5.03;;;3.30;;
54235;SDS011;40151;43.606;1.472;2023-07-20T04:50:35;5.25;;;3.42;;
54235;SDS011;40151;43.606;1.472;2023-07-20T04:53:02;6.15;;;3.85;;
54235;SDS011;40151;43.606;1.472;2023-07-20T04:55:28;5.03;;;3.17;;
54235;SDS011;40151;43.606;1.472;2023-07-20T04:57:53;5.45;;;3.80;;
54235;SDS011;40151;43.606;1.472;2023-07-20T05:00:18;6.00;;;3.70;;
54235;SDS011;40151;43.606;1.472;2023-07-20T05:02:44;5.95;;;3.50;;
54235;SDS011;40151;43.606;1.472;2023-07-20T05:05:12;5.07;;;3.17;;
54235;SDS011;40151;43.606;1.472;2023-07-20T05:07:38;5.85;;;3.80;;
54235;SDS011;40151;43.606;1.472;2023-07-20T05:10:03;5.28;;;2.90;;
54235;SDS011;40151;43.606;1.472;2023-07-20T05:12:29;5.38;;;3.50;;
54235;SDS011;40151;43.606;1.472;2023-07-20T05:14:54;4.78;;;3.15;;
54235;SDS011;40151;43.606;1.472;2023-07-20T05:17:20;4.57;;;3.00;;
54235;SDS011;40151;43.606;1.472;2023-07-20T05:19:45;5.03;;;3.30;;
54235;SDS011;40151;43.606;1.472;2023-07-20T05:22:13;4.45;;;2.80;;
54235;SDS011;40151;43.606;1.472;2023-07-20T05:24:39;5.05;;;3.22;;
54235;SDS011;40151;43.606;1.472;2023-07-20T05:27:05;4.18;;;2.80;;
54235;SDS011;40151;43.606;1.472;2023-07-20T05:29:30;3.45;;;2.45;;
54235;SDS011;40151;43.606;1.472;2023-07-20T05:31:56;5.03;;;3.10;;
54235;SDS011;40151;43.606;1.472;2023-07-20T05:34:22;4.72;;;2.95;;
54235;SDS011;40151;43.606;1.472;2023-07-20T05:36:47;5.80;;;3.47;;
54235;SDS011;40151;43.606;1.472;2023-07-20T05:39:13;3.80;;;2.58;;
54235;SDS011;40151;43.606;1.472;2023-07-20T05:41:38;4.90;;;2.83;;
54235;SDS011;40151;43.606;1.472;2023-07-20T05:44:04;3.92;;;2.65;;
54235;SDS011;40151;43.606;1.472;2023-07-20T05:46:29;5.43;;;3.20;;
54235;SDS011;40151;43.606;1.472;2023-07-20T05:48:54;5.15;;;3.10;;
54235;SDS011;40151;43.606;1.472;2023-07-20T05:51:20;4.47;;;2.88;;
54235;SDS011;40151;43.606;1.472;2023-07-20T05:53:45;4.15;;;2.58;;
54235;SDS011;40151;43.606;1.472;2023-07-20T05:56:11;5.00;;;2.45;;
54235;SDS011;40151;43.606;1.472;2023-07-20T05:58:36;4.28;;;2.40;;
54235;SDS011;40151;43.606;1.472;2023-07-20T06:01:03;5.60;;;3.00;;
54235;SDS011;40151;43.606;1.472;2023-07-20T06:03:30;4.25;;;2.58;;
54235;SDS011;40151;43.606;1.472;2023-07-20T06:06:00;3.58;;;2.67;;
54235;SDS011;40151;43.606;1.472;2023-07-20T06:08:30;3.88;;;2.40;;
54235;SDS011;40151;43.606;1.472;2023-07-20T06:10:56;4.18;;;2.30;;
54235;SDS011;40151;43.606;1.472;2023-07-20T06:13:22;4.65;;;2.40;;
54235;SDS011;40151;43.606;1.472;2023-07-20T06:15:47;4.60;;;2.33;;
54235;SDS011;40151;43.606;1.472;2023-07-20T06:18:13;4.13;;;2.50;;
54235;SDS011;40151;43.606;1.472;2023-07-20T06:20:38;5.22;;;2.78;;
54235;SDS011;40151;43.606;1.472;2023-07-20T06:23:04;3.83;;;2.53;;
54235;SDS011;40151;43.606;1.472;2023-07-20T06:25:30;5.07;;;2.47;;
54235;SDS011;40151;43.606;1.472;2023-07-20T06:27:56;3.90;;;2.17;;
54235;SDS011;40151;43.606;1.472;2023-07-20T06:30:21;3.80;;;2.33;;
54235;SDS011;40151;43.606;1.472;2023-07-20T06:32:47;3.92;;;2.30;;
54235;SDS011;40151;43.606;1.472;2023-07-20T06:35:13;3.35;;;2.08;;
54235;SDS011;40151;43.606;1.472;2023-07-20T06:37:38;3.78;;;2.20;;
54235;SDS011;40151;43.606;1.472;2023-07-20T06:40:04;4.20;;;2.22;;
54235;SDS011;40151;43.606;1.472;2023-07-20T06:42:30;3.42;;;2.13;;
54235;SDS011;40151;43.606;1.472;2023-07-20T06:44:56;4.10;;;2.15;;
54235;SDS011;40151;43.606;1.472;2023-07-20T06:47:22;4.10;;;2.10;;
54235;SDS011;40151;43.606;1.472;2023-07-20T06:49:47;3.65;;;2.10;;
54235;SDS011;40151;43.606;1.472;2023-07-20T06:52:13;4.35;;;2.08;;
54235;SDS011;40151;43.606;1.472;2023-07-20T06:54:38;3.00;;;1.95;;
54235;SDS011;40151;43.606;1.472;2023-07-20T06:57:04;4.15;;;2.20;;
54235;SDS011;40151;43.606;1.472;2023-07-20T06:59:30;3.28;;;2.03;;
54235;SDS011;40151;43.606;1.472;2023-07-20T07:01:55;3.75;;;2.08;;
54235;SDS011;40151;43.606;1.472;2023-07-20T07:04:21;4.15;;;2.33;;
54235;SDS011;40151;43.606;1.472;2023-07-20T07:06:46;3.63;;;2.10;;
54235;SDS011;40151;43.606;1.472;2023-07-20T07:09:12;3.40;;;1.90;;
54235;SDS011;40151;43.606;1.472;2023-07-20T07:11:37;4.43;;;1.88;;
54235;SDS011;40151;43.606;1.472;2023-07-20T07:14:03;3.65;;;2.10;;
54235;SDS011;40151;43.606;1.472;2023-07-20T07:16:28;4.05;;;2.08;;
54235;SDS011;40151;43.606;1.472;2023-07-20T07:18:53;3.97;;;2.15;;
54235;SDS011;40151;43.606;1.472;2023-07-20T07:21:19;4.47;;;2.35;;
54235;SDS011;40151;43.606;1.472;2023-07-20T07:23:45;3.47;;;2.08;;
54235;SDS011;40151;43.606;1.472;2023-07-20T07:26:10;3.60;;;2.00;;
54235;SDS011;40151;43.606;1.472;2023-07-20T07:28:36;3.85;;;2.13;;
54235;SDS011;40151;43.606;1.472;2023-07-20T07:31:04;4.43;;;2.15;;
54235;SDS011;40151;43.606;1.472;2023-07-20T07:33:31;4.80;;;2.42;;
54235;SDS011;40151;43.606;1.472;2023-07-20T07:35:56;4.13;;;2.35;;
54235;SDS011;40151;43.606;1.472;2023-07-20T07:38:22;4.40;;;2.00;;
54235;SDS011;40151;43.606;1.472;2023-07-20T07:40:47;3.08;;;1.90;;
54235;SDS011;40151;43.606;1.472;2023-07-20T07:43:13;3.72;;;2.15;;
54235;SDS011;40151;43.606;1.472;2023-07-20T07:45:39;3.35;;;2.20;;
54235;SDS011;40151;43.606;1.472;2023-07-20T07:48:05;4.00;;;2.22;;
54235;SDS011;40151;43.606;1.472;2023-07-20T07:50:31;4.88;;;2.97;;
54235;SDS011;40151;43.606;1.472;2023-07-20T07:52:57;5.05;;;2.70;;
54235;SDS011;40151;43.606;1.472;2023-07-20T07:55:22;3.65;;;2.38;;
54235;SDS011;40151;43.606;1.472;2023-07-20T07:57:49;3.33;;;2.08;;
54235;SDS011;40151;43.606;1.472;2023-07-20T08:00:15;4.95;;;2.40;;
54235;SDS011;40151;43.606;1.472;2023-07-20T08:02:43;4.15;;;2.40;;
54235;SDS011;40151;43.606;1.472;2023-07-20T08:05:11;3.60;;;2.25;;
54235;SDS011;40151;43.606;1.472;2023-07-20T08:07:37;3.80;;;2.42;;
54235;SDS011;40151;43.606;1.472;2023-07-20T08:10:03;4.10;;;2.30;;
54235;SDS011;40151;43.606;1.472;2023-07-20T08:12:28;3.53;;;2.10;;
54235;SDS011;40151;43.606;1.472;2023-07-20T08:14:54;3.40;;;2.13;;
54235;SDS011;40151;43.606;1.472;2023-07-20T08:17:19;3.00;;;2.00;;
54235;SDS011;40151;43.606;1.472;2023-07-20T08:19:45;3.22;;;1.83;;
54235;SDS011;40151;43.606;1.472;2023-07-20T08:22:11;5.10;;;2.20;;
54235;SDS011;40151;43.606;1.472;2023-07-20T08:24:40;3.65;;;2.20;;
54235;SDS011;40151;43.606;1.472;2023-07-20T08:27:06;3.55;;;1.88;;
54235;SDS011;40151;43.606;1.472;2023-07-20T08:29:32;3.65;;;2.05;;
54235;SDS011;40151;43.606;1.472;2023-07-20T08:31:57;3.88;;;1.98;;
54235;SDS011;40151;43.606;1.472;2023-07-20T08:34:22;4.30;;;2.30;;
54235;SDS011;40151;43.606;1.472;2023-07-20T08:36:48;4.30;;;2.05;;
54235;SDS011;40151;43.606;1.472;2023-07-20T08:39:13;4.60;;;2.08;;
54235;SDS011;40151;43.606;1.472;2023-07-20T08:41:39;3.17;;;1.90;;
54235;SDS011;40151;43.606;1.472;2023-07-20T08:44:05;4.30;;;1.95;;
54235;SDS011;40151;43.606;1.472;2023-07-20T08:46:32;3.70;;;2.00;;
54235;SDS011;40151;43.606;1.472;2023-07-20T08:48:59;4.35;;;2.00;;
54235;SDS011;40151;43.606;1.472;2023-07-20T08:51:27;3.10;;;2.20;;
54235;SDS011;40151;43.606;1.472;2023-07-20T08:53:53;4.22;;;2.17;;
54235;SDS011;40151;43.606;1.472;2023-07-20T08:56:19;4.30;;;2.17;;
54235;SDS011;40151;43.606;1.472;2023-07-20T08:58:46;3.75;;;2.05;;
54235;SDS011;40151;43.606;1.472;2023-07-20T09:01:12;4.30;;;2.15;;
54235;SDS011;40151;43.606;1.472;2023-07-20T09:03:39;3.80;;;2.10;;
54235;SDS011;40151;43.606;1.472;2023-07-20T09:06:05;5.05;;;2.05;;
54235;SDS011;40151;43.606;1.472;2023-07-20T09:08:31;4.57;;;2.10;;
54235;SDS011;40151;43.606;1.472;2023-07-20T09:10:56;4.13;;;2.00;;
54235;SDS011;40151;43.606;1.472;2023-07-20T09:13:24;3.88;;;2.00;;
54235;SDS011;40151;43.606;1.472;2023-07-20T09:15:53;4.97;;;2.20;;
54235;SDS011;40151;43.606;1.472;2023-07-20T09:18:23;3.97;;;2.15;;
54235;SDS011;40151;43.606;1.472;2023-07-20T09:21:01;5.22;;;2.72;;
54235;SDS011;40151;43.606;1.472;2023-07-20T09:23:31;3.67;;;1.73;;
54235;SDS011;40151;43.606;1.472;2023-07-20T09:25:58;3.90;;;2.38;;
54235;SDS011;40151;43.606;1.472;2023-07-20T09:28:24;3.00;;;1.88;;
54235;SDS011;40151;43.606;1.472;2023-07-20T09:30:49;3.85;;;2.13;;
54235;SDS011;40151;43.606;1.472;2023-07-20T09:33:18;4.10;;;2.25;;
54235;SDS011;40151;43.606;1.472;2023-07-20T09:35:46;3.70;;;2.00;;
54235;SDS011;40151;43.606;1.472;2023-07-20T09:38:12;4.47;;;2.33;;
54235;SDS011;40151;43.606;1.472;2023-07-20T09:40:40;3.33;;;1.80;;
54235;SDS011;40151;43.606;1.472;2023-07-20T09:43:07;3.80;;;2.03;;
54235;SDS011;40151;43.606;1.472;2023-07-20T09:45:34;4.38;;;2.35;;
54235;SDS011;40151;43.606;1.472;2023-07-20T09:48:07;3.28;;;1.75;;
54235;SDS011;40151;43.606;1.472;2023-07-20T09:50:34;4.20;;;1.95;;
54235;SDS011;40151;43.606;1.472;2023-07-20T09:53:04;4.70;;;1.77;;
54235;SDS011;40151;43.606;1.472;2023-07-20T09:55:30;3.38;;;1.70;;
54235;SDS011;40151;43.606;1.472;2023-07-20T09:57:57;3.00;;;1.60;;
54235;SDS011;40151;43.606;1.472;2023-07-20T10:00:24;2.53;;;1.23;;
54235;SDS011;40151;43.606;1.472;2023-07-20T10:02:49;4.40;;;2.20;;
54235;SDS011;40151;43.606;1.472;2023-07-20T10:05:17;3.22;;;2.05;;
54235;SDS011;40151;43.606;1.472;2023-07-20T10:07:44;3.83;;;2.20;;
54235;SDS011;40151;43.606;1.472;2023-07-20T10:10:13;3.47;;;1.80;;
54235;SDS011;40151;43.606;1.472;2023-07-20T10:12:41;3.70;;;1.92;;
54235;SDS011;40151;43.606;1.472;2023-07-20T10:15:24;3.47;;;1.52;;
54235;SDS011;40151;43.606;1.472;2023-07-20T10:17:58;5.25;;;2.15;;
54235;SDS011;40151;43.606;1.472;2023-07-20T10:20:28;3.78;;;1.70;;
54235;SDS011;40151;43.606;1.472;2023-07-20T10:22:55;3.47;;;1.70;;
54235;SDS011;40151;43.606;1.472;2023-07-20T10:25:22;2.75;;;1.75;;
54235;SDS011;40151;43.606;1.472;2023-07-20T10:27:48;4.15;;;2.25;;
54235;SDS011;40151;43.606;1.472;2023-07-20T10:30:14;3.15;;;1.60;;
54235;SDS011;40151;43.606;1.472;2023-07-20T10:32:40;3.60;;;1.90;;
54235;SDS011;40151;43.606;1.472;2023-07-20T10:35:13;4.22;;;2.20;;
54235;SDS011;40151;43.606;1.472;2023-07-20T10:37:53;3.33;;;1.90;;
54235;SDS011;40151;43.606;1.472;2023-07-20T10:40:26;5.18;;;1.83;;
54235;SDS011;40151;43.606;1.472;2023-07-20T10:42:58;3.67;;;1.80;;
54235;SDS011;40151;43.606;1.472;2023-07-20T10:45:39;3.80;;;1.83;;
54235;SDS011;40151;43.606;1.472;2023-07-20T10:48:08;3.97;;;1.92;;
54235;SDS011;40151;43.606;1.472;2023-07-20T10:50:40;5.30;;;1.90;;
54235;SDS011;40151;43.606;1.472;2023-07-20T10:55:42;3.60;;;1.80;;
54235;SDS011;40151;43.606;1.472;2023-07-20T10:58:12;3.60;;;1.50;;
54235;SDS011;40151;43.606;1.472;2023-07-20T11:00:57;3.60;;;1.60;;
54235;SDS011;40151;43.606;1.472;2023-07-20T11:03:29;3.00;;;1.88;;
54235;SDS011;40151;43.606;1.472;2023-07-20T11:05:59;3.17;;;1.80;;
54235;SDS011;40151;43.606;1.472;2023-07-20T11:08:43;2.83;;;1.67;;
54235;SDS011;40151;43.606;1.472;2023-07-20T11:11:27;3.42;;;2.03;;
54235;SDS011;40151;43.606;1.472;2023-07-20T11:13:55;2.97;;;1.63;;
54235;SDS011;40151;43.606;1.472;2023-07-20T11:18:59;2.83;;;1.50;;
54235;SDS011;40151;43.606;1.472;2023-07-20T11:21:25;3.47;;;2.03;;
54235;SDS011;40151;43.606;1.472;2023-07-20T11:23:52;3.38;;;1.90;;
54235;SDS011;40151;43.606;1.472;2023-07-20T11:26:18;5.22;;;1.85;;
54235;SDS011;40151;43.606;1.472;2023-07-20T11:28:48;3.10;;;1.77;;
54235;SDS011;40151;43.606;1.472;2023-07-20T11:31:17;3.35;;;1.70;;
54235;SDS011;40151;43.606;1.472;2023-07-20T11:33:43;3.13;;;1.60;;
54235;SDS011;40151;43.606;1.472;2023-07-20T11:36:09;6.20;;;2.15;;
54235;SDS011;40151;43.606;1.472;2023-07-20T11:38:35;4.70;;;2.08;;
54235;SDS011;40151;43.606;1.472;2023-07-20T11:41:02;3.17;;;1.63;;
54235;SDS011;40151;43.606;1.472;2023-07-20T11:43:28;3.75;;;1.92;;
54235;SDS011;40151;43.606;1.472;2023-07-20T11:45:54;3.75;;;1.77;;
54235;SDS011;40151;43.606;1.472;2023-07-20T11:48:20;3.78;;;1.90;;
54235;SDS011;40151;43.606;1.472;2023-07-20T11:50:45;4.05;;;1.73;;
54235;SDS011;40151;43.606;1.472;2023-07-20T11:53:12;3.60;;;1.70;;
54235;SDS011;40151;43.606;1.472;2023-07-20T11:55:38;2.65;;;1.63;;
54235;SDS011;40151;43.606;1.472;2023-07-20T11:58:07;4.43;;;2.20;;
54235;SDS011;40151;43.606;1.472;2023-07-20T12:00:34;3.55;;;1.75;;
54235;SDS011;40151;43.606;1.472;2023-07-20T12:03:00;3.83;;;1.77;;
54235;SDS011;40151;43.606;1.472;2023-07-20T12:05:26;3.50;;;1.90;;
54235;SDS011;40151;43.606;1.472;2023-07-20T12:07:51;3.70;;;2.10;;
54235;SDS011;40151;43.606;1.472;2023-07-20T12:10:23;3.45;;;2.05;;
54235;SDS011;40151;43.606;1.472;2023-07-20T12:12:53;4.43;;;2.10;;
54235;SDS011;40151;43.606;1.472;2023-07-20T12:15:20;4.30;;;2.40;;
54235;SDS011;40151;43.606;1.472;2023-07-20T12:17:46;4.38;;;2.35;;
54235;SDS011;40151;43.606;1.472;2023-07-20T12:20:24;3.72;;;1.90;;
54235;SDS011;40151;43.606;1.472;2023-07-20T12:22:51;3.95;;;2.40;;
54235;SDS011;40151;43.606;1.472;2023-07-20T12:25:17;4.57;;;2.28;;
54235;SDS011;40151;43.606;1.472;2023-07-20T12:27:45;4.97;;;2.10;;
54235;SDS011;40151;43.606;1.472;2023-07-20T12:30:10;5.07;;;2.40;;
54235;SDS011;40151;43.606;1.472;2023-07-20T12:32:36;4.30;;;2.10;;
54235;SDS011;40151;43.606;1.472;2023-07-20T12:35:01;3.58;;;2.10;;
54235;SDS011;40151;43.606;1.472;2023-07-20T12:37:27;3.13;;;1.80;;
54235;SDS011;40151;43.606;1.472;2023-07-20T12:39:52;4.82;;;2.08;;
54235;SDS011;40151;43.606;1.472;2023-07-20T12:42:18;4.43;;;2.10;;
54235;SDS011;40151;43.606;1.472;2023-07-20T12:44:43;2.95;;;1.73;;
54235;SDS011;40151;43.606;1.472;2023-07-20T12:47:09;2.45;;;1.70;;
54235;SDS011;40151;43.606;1.472;2023-07-20T12:49:34;4.35;;;1.90;;
54235;SDS011;40151;43.606;1.472;2023-07-20T12:51:59;3.35;;;1.88;;
54235;SDS011;40151;43.606;1.472;2023-07-20T12:54:25;3.78;;;1.75;;
54235;SDS011;40151;43.606;1.472;2023-07-20T12:56:50;3.20;;;1.45;;
54235;SDS011;40151;43.606;1.472;2023-07-20T12:59:15;3.42;;;1.75;;
54235;SDS011;40151;43.606;1.472;2023-07-20T13:01:41;3.15;;;1.67;;
54235;SDS011;40151;43.606;1.472;2023-07-20T13:04:07;4.38;;;1.63;;
54235;SDS011;40151;43.606;1.472;2023-07-20T13:06:34;3.72;;;1.52;;
54235;SDS011;40151;43.606;1.472;2023-07-20T13:09:00;3.22;;;1.50;;
54235;SDS011;40151;43.606;1.472;2023-07-20T13:11:25;3.63;;;1.70;;
54235;SDS011;40151;43.606;1.472;2023-07-20T13:13:51;3.47;;;1.88;;
54235;SDS011;40151;43.606;1.472;2023-07-20T13:16:17;2.67;;;1.40;;
54235;SDS011;40151;43.606;1.472;2023-07-20T13:18:42;4.47;;;2.38;;
54235;SDS011;40151;43.606;1.472;2023-07-20T13:21:07;3.80;;;2.05;;
54235;SDS011;40151;43.606;1.472;2023-07-20T13:23:36;3.72;;;1.85;;
54235;SDS011;40151;43.606;1.472;2023-07-20T13:26:02;3.78;;;1.90;;
54235;SDS011;40151;43.606;1.472;2023-07-20T13:28:30;4.18;;;1.95;;
54235;SDS011;40151;43.606;1.472;2023-07-20T13:30:56;3.15;;;1.92;;
54235;SDS011;40151;43.606;1.472;2023-07-20T13:33:21;4.03;;;2.20;;
54235;SDS011;40151;43.606;1.472;2023-07-20T13:35:47;3.25;;;2.00;;
54235;SDS011;40151;43.606;1.472;2023-07-20T13:38:12;3.83;;;1.92;;
54235;SDS011;40151;43.606;1.472;2023-07-20T13:40:38;2.65;;;1.58;;
54235;SDS011;40151;43.606;1.472;2023-07-20T13:43:03;4.57;;;2.08;;
54235;SDS011;40151;43.606;1.472;2023-07-20T13:45:29;3.35;;;2.00;;
54235;SDS011;40151;43.606;1.472;2023-07-20T13:47:54;3.63;;;1.90;;
54235;SDS011;40151;43.606;1.472;2023-07-20T13:50:19;2.95;;;1.52;;
54235;SDS011;40151;43.606;1.472;2023-07-20T13:52:45;3.33;;;1.98;;
54235;SDS011;40151;43.606;1.472;2023-07-20T13:55:11;3.50;;;2.15;;
54235;SDS011;40151;43.606;1.472;2023-07-20T13:57:36;3.78;;;1.80;;
54235;SDS011;40151;43.606;1.472;2023-07-20T14:00:04;3.47;;;2.00;;
54235;SDS011;40151;43.606;1.472;2023-07-20T14:02:33;3.72;;;1.70;;
54235;SDS011;40151;43.606;1.472;2023-07-20T14:04:58;3.55;;;1.58;;
54235;SDS011;40151;43.606;1.472;2023-07-20T14:07:24;3.90;;;1.77;;
54235;SDS011;40151;43.606;1.472;2023-07-20T14:09:50;3.45;;;1.92;;
54235;SDS011;40151;43.606;1.472;2023-07-20T14:12:15;3.47;;;2.00;;
54235;SDS011;40151;43.606;1.472;2023-07-20T14:14:41;3.55;;;1.85;;
54235;SDS011;40151;43.606;1.472;2023-07-20T14:17:06;2.40;;;1.63;;
54235;SDS011;40151;43.606;1.472;2023-07-20T14:19:32;4.05;;;2.03;;
54235;SDS011;40151;43.606;1.472;2023-07-20T14:21:58;2.95;;;1.58;;
54235;SDS011;40151;43.606;1.472;2023-07-20T14:24:24;3.33;;;2.10;;
54235;SDS011;40151;43.606;1.472;2023-07-20T14:26:50;4.38;;;2.10;;
54235;SDS011;40151;43.606;1.472;2023-07-20T14:29:16;3.58;;;2.08;;
54235;SDS011;40151;43.606;1.472;2023-07-20T14:31:43;3.20;;;1.85;;
54235;SDS011;40151;43.606;1.472;2023-07-20T14:34:08;3.55;;;1.83;;
54235;SDS011;40151;43.606;1.472;2023-07-20T14:36:34;3.70;;;2.17;;
54235;SDS011;40151;43.606;1.472;2023-07-20T14:39:00;2.70;;;1.70;;
54235;SDS011;40151;43.606;1.472;2023-07-20T14:41:25;3.35;;;1.95;;
54235;SDS011;40151;43.606;1.472;2023-07-20T14:43:51;2.83;;;1.67;;
54235;SDS011;40151;43.606;1.472;2023-07-20T14:46:17;3.20;;;1.80;;
54235;SDS011;40151;43.606;1.472;2023-07-20T14:48:42;3.38;;;1.83;;
54235;SDS011;40151;43.606;1.472;2023-07-20T14:51:07;3.92;;;1.67;;
54235;SDS011;40151;43.606;1.472;2023-07-20T14:53:33;3.17;;;1.52;;
54235;SDS011;40151;43.606;1.472;2023-07-20T14:55:59;6.70;;;1.90;;
54235;SDS011;40151;43.606;1.472;2023-07-20T14:58:26;5.80;;;2.00;;